Kristina — V7ZT9 — position and weather

sailwx.info

Track history (hours):
 
Tides and Currents Weather Stations Pressure Air Temp Water Temp Dewpoint Dewpoint Depression Visibility Wind Speed Wind Dir Waves Ship Positions

Kristina

Last reported at 2017-Nov-02 17:29 UTC. Time now 2017-Nov-18 16:06 UTC.
Position N 38°08' W 124°08'.
Warning: this ship's position is 15 days out of date.

Length 270 m; draft 10.6 m.

Type: Ship (hazmat cat A). MMSI: 538004913.

Date/timePositionNaut miles runAvg speedWind from/ knotsBaromVisibWave heightAir tempDewpointWater temp
2017-Nov-02 17:29N 38°08' W 124°08'714.5
2017-Nov-02 17:00N 38°08' W 123°59'814.7
2017-Nov-02 16:29N 38°09' W 123°49'715.0
2017-Nov-02 16:00N 38°09' W 123°40'714.8
2017-Nov-02 15:30N 38°09' W 123°31'714.9
2017-Nov-02 15:01N 38°09' W 123°21'714.4
2017-Nov-02 14:30N 38°04' W 123°15'715.0
2017-Nov-02 14:00N 37°59' W 123°08'815.0
2017-Nov-02 13:30N 37°55' W 123°00'714.9
2017-Nov-02 13:00N 37°51' W 122°52'714.7
2017-Nov-02 12:30N 37°47' W 122°45'4 8.9
2017-Nov-02 12:00N 37°46' W 122°39'816.8
2017-Nov-02 11:30N 37°49' W 122°29'612.6
2017-Nov-02 11:00N 37°48' W 122°21'3 6.3
2017-Nov-02 10:31N 37°48' W 122°17'1 2.1
2017-Nov-02 09:58N 37°48' W 122°19'0 0.0
2017-Nov-02 09:28N 37°48' W 122°19'0 0.0
2017-Nov-02 08:58N 37°48' W 122°19'0 0.0
2017-Nov-02 08:28N 37°48' W 122°19'0 0.0
2017-Nov-02 07:58N 37°48' W 122°19'0 0.0
2017-Nov-02 07:28N 37°48' W 122°19'0 0.0
2017-Nov-02 06:58N 37°48' W 122°19'0 0.0
2017-Nov-02 06:28N 37°48' W 122°19'0 0.0
2017-Nov-02 05:59N 37°48' W 122°19'0 0.0
2017-Nov-02 05:28N 37°48' W 122°19'0 0.0
2017-Nov-02 04:58N 37°48' W 122°19'0 0.0
2017-Nov-02 04:28N 37°48' W 122°19'0 0.0
2017-Nov-02 03:58N 37°48' W 122°19'0 0.0
2017-Nov-02 03:28N 37°48' W 122°19'0 0.0
2017-Nov-02 02:58N 37°48' W 122°19'0 0.0
2017-Nov-02 02:28N 37°48' W 122°19'0 0.0
2017-Nov-02 01:59N 37°48' W 122°19'0 0.0
2017-Nov-02 01:28N 37°48' W 122°19'0 0.0
2017-Nov-02 00:58N 37°48' W 122°19'0 0.0
2017-Nov-02 00:28N 37°48' W 122°19'0 0.0
2017-Nov-01 23:58N 37°48' W 122°19'0 0.0
2017-Nov-01 23:28N 37°48' W 122°19'0 0.0
2017-Nov-01 22:59N 37°48' W 122°19'1 1.9
2017-Nov-01 22:30N 37°48' W 122°20'4 9.0
2017-Nov-01 22:00N 37°49' W 122°25'612.2
2017-Nov-01 21:31N 37°47' W 122°33'714.1
2017-Nov-01 21:01N 37°44' W 122°41'612.0
2017-Nov-01 20:30N 37°38' W 122°40'612.2
2017-Nov-01 20:01N 37°32' W 122°40'611.1
2017-Nov-01 19:31N 37°26' W 122°40'511.0
2017-Nov-01 19:01N 37°21' W 122°40'511.0
2017-Nov-01 18:31N 37°15' W 122°40'18711.3
2017-Nov-01 02:00N 34°29' W 120°54'510.2
2017-Nov-01 01:30N 34°26' W 120°49'611.5
2017-Nov-01 00:57N 34°24' W 120°42'611.9
2017-Nov-01 00:29N 34°23' W 120°35'611.9
2017-Oct-31 23:59N 34°21' W 120°28'611.6
2017-Oct-31 23:25N 34°19' W 120°21'511.4
2017-Oct-31 22:58N 34°18' W 120°15'511.3
2017-Oct-31 22:30N 34°16' W 120°08'611.2
2017-Oct-31 21:59N 34°15' W 120°02'510.9
2017-Oct-31 21:30N 34°13' W 119°56'611.0
2017-Oct-31 20:55N 34°12' W 119°48'511.0
2017-Oct-31 20:30N 34°11' W 119°43'510.5
2017-Oct-31 19:59N 34°09' W 119°36'511.0
2017-Oct-31 19:30N 34°08' W 119°30'510.9
2017-Oct-31 19:00N 34°06' W 119°24'611.3
2017-Oct-31 18:29N 34°05' W 119°17'711.1
2017-Oct-31 17:51N 34°01' W 119°09'411.1
2017-Oct-31 17:27N 33°59' W 119°05'511.2
2017-Oct-31 16:59N 33°57' W 118°59'611.2
2017-Oct-31 16:28N 33°54' W 118°53'511.2
2017-Oct-31 16:00N 33°51' W 118°48'611.2
2017-Oct-31 15:30N 33°48' W 118°42'611.1
2017-Oct-31 15:00N 33°46' W 118°36'511.2
2017-Oct-31 14:30N 33°43' W 118°30'611.2
2017-Oct-31 14:00N 33°40' W 118°25'510.4
2017-Oct-31 13:30N 33°38' W 118°19'7 0.2
2017-Oct-29 19:59N 33°45' W 118°16'0 0.0
2017-Oct-29 13:29N 33°45' W 118°17'0 0.0
2017-Oct-29 11:47N 33°45' W 118°17'0 0.0
2017-Oct-29 11:29N 33°45' W 118°17'0 0.0
2017-Oct-29 05:40N 33°45' W 118°16'0 0.1
2017-Oct-29 05:11N 33°45' W 118°17'0 0.0
2017-Oct-29 04:53N 33°45' W 118°17'0 0.1
2017-Oct-29 04:23N 33°45' W 118°16'0 0.1
2017-Oct-29 03:41N 33°45' W 118°17'17 1.9
2017-Oct-28 19:00N 33°44' W 118°36'611.9
2017-Oct-28 18:30N 33°47' W 118°43'612.3
2017-Oct-28 18:00N 33°50' W 118°49'612.0
2017-Oct-28 17:31N 33°52' W 118°55'612.0
2017-Oct-28 17:00N 33°55' W 119°02'816.7
2017-Oct-28 16:30N 33°60' W 119°10'917.5
2017-Oct-28 16:00N 34°03' W 119°20'917.9
2017-Oct-28 15:30N 34°06' W 119°30'917.7
2017-Oct-28 14:59N 34°08' W 119°41'918.2
2017-Oct-28 14:30N 34°10' W 119°51'917.7
2017-Oct-28 14:00N 34°13' W 120°02'917.6
2017-Oct-28 13:30N 34°15' W 120°12'917.7
2017-Oct-28 13:00N 34°17' W 120°22'917.2
2017-Oct-28 12:30N 34°20' W 120°32'816.6
2017-Oct-28 12:00N 34°22' W 120°42'916.9
2017-Oct-28 11:30N 34°24' W 120°52'917.4
2017-Oct-28 10:59N 34°26' W 121°03'817.4
2017-Oct-28 10:30N 34°28' W 121°12'917.8
2017-Oct-28 10:00N 34°29' W 121°23'917.6
2017-Oct-28 09:30N 34°31' W 121°34'917.9
2017-Oct-28 09:01N 34°33' W 121°44'917.9
2017-Oct-28 08:30N 34°34' W 121°55'917.8
2017-Oct-28 08:01N 34°36' W 122°05'917.9
2017-Oct-28 07:30N 34°38' W 122°16'917.6
2017-Oct-28 07:01N 34°40' W 122°26'917.9
2017-Oct-28 06:31N 34°42' W 122°37'918.2
2017-Oct-28 06:00N 34°44' W 122°48'918.4
2017-Oct-28 05:30N 34°45' W 122°59'917.9
2017-Oct-28 05:00N 34°47' W 123°10'917.8
2017-Oct-28 04:30N 34°49' W 123°20'917.6
2017-Oct-28 04:00N 34°50' W 123°31'917.6
2017-Oct-28 03:30N 34°52' W 123°41'917.6
2017-Oct-28 03:00N 34°54' W 123°52'917.4
2017-Oct-28 02:30N 34°56' W 124°02'917.9
2017-Oct-28 02:01N 34°57' W 124°13'917.6
2017-Oct-28 01:30N 34°59' W 124°24'917.7
2017-Oct-28 01:00N 35°01' W 124°34'918.0
2017-Oct-28 00:30N 35°03' W 124°45'917.8
2017-Oct-28 00:01N 35°04' W 124°55'917.9
2017-Oct-27 23:31N 35°06' W 125°06'917.9
2017-Oct-27 23:00N 35°08' W 125°17'918.2
2017-Oct-27 22:30N 35°10' W 125°28'918.1
2017-Oct-27 22:01N 35°12' W 125°39'917.8
2017-Oct-27 21:29N 35°15' W 125°49'918.3
2017-Oct-27 21:00N 35°19' W 125°58'918.3
2017-Oct-27 20:30N 35°25' W 126°08'918.4
2017-Oct-27 20:01N 35°30' W 126°17'1318.5
2017-Oct-27 19:17N 35°38' W 126°30'518.8
2017-Oct-27 19:00N 35°41' W 126°35'918.5
2017-Oct-27 18:31N 35°47' W 126°44'2518.1
2017-Oct-27 17:07N 36°01' W 127°10'218.2
2017-Oct-27 17:00N 36°02' W 127°12'1017.9
2017-Oct-27 16:25N 36°08' W 127°23'718.1
2017-Oct-27 16:00N 36°12' W 127°30'918.3
2017-Oct-27 15:30N 36°18' W 127°40'2717.9
2017-Oct-27 13:58N 36°33' W 128°08'817.9
2017-Oct-27 13:30N 36°38' W 128°16'917.9
2017-Oct-27 13:01N 36°43' W 128°25'917.9
2017-Oct-27 12:30N 36°49' W 128°34'5717.8
2017-Oct-27 09:19N 37°21' W 129°32'618.0
2017-Oct-27 09:00N 37°25' W 129°38'917.8
2017-Oct-27 08:30N 37°30' W 129°47'918.0
2017-Oct-27 08:00N 37°35' W 129°56'2017.7
2017-Oct-27 06:54N 37°46' W 130°17'717.7
2017-Oct-27 06:30N 37°49' W 130°24'1017.6
2017-Oct-27 05:55N 37°55' W 130°35'817.8
2017-Oct-27 05:29N 37°59' W 130°44'917.7
2017-Oct-27 05:00N 38°04' W 130°53'  
Track history (hours):
 
Tides and Currents Weather Stations Pressure Air Temp Water Temp Dewpoint Dewpoint Depression Visibility Wind Speed Wind Dir Waves Ship Positions

Kristina

Last reported at 2017-Nov-02 17:29 UTC. Time now 2017-Nov-18 16:06 UTC.
Position N 38°08' W 124°08'.
Warning: this ship's position is 15 days out of date.

Length 270 m; draft 10.6 m.

Type: Ship (hazmat cat A). MMSI: 538004913.

Date/timePositionNaut miles runAvg speedWind from/ knotsBaromVisibWave heightAir tempDewpointWater temp
2017-Nov-02 17:29N 38°08' W 124°08'714.5
2017-Nov-02 17:00N 38°08' W 123°59'814.7
2017-Nov-02 16:29N 38°09' W 123°49'715.0
2017-Nov-02 16:00N 38°09' W 123°40'714.8
2017-Nov-02 15:30N 38°09' W 123°31'714.9
2017-Nov-02 15:01N 38°09' W 123°21'714.4
2017-Nov-02 14:30N 38°04' W 123°15'715.0
2017-Nov-02 14:00N 37°59' W 123°08'815.0
2017-Nov-02 13:30N 37°55' W 123°00'714.9
2017-Nov-02 13:00N 37°51' W 122°52'714.7
2017-Nov-02 12:30N 37°47' W 122°45'4 8.9
2017-Nov-02 12:00N 37°46' W 122°39'816.8
2017-Nov-02 11:30N 37°49' W 122°29'612.6
2017-Nov-02 11:00N 37°48' W 122°21'3 6.3
2017-Nov-02 10:31N 37°48' W 122°17'1 2.1
2017-Nov-02 09:58N 37°48' W 122°19'0 0.0
2017-Nov-02 09:28N 37°48' W 122°19'0 0.0
2017-Nov-02 08:58N 37°48' W 122°19'0 0.0
2017-Nov-02 08:28N 37°48' W 122°19'0 0.0
2017-Nov-02 07:58N 37°48' W 122°19'0 0.0
2017-Nov-02 07:28N 37°48' W 122°19'0 0.0
2017-Nov-02 06:58N 37°48' W 122°19'0 0.0
2017-Nov-02 06:28N 37°48' W 122°19'0 0.0
2017-Nov-02 05:59N 37°48' W 122°19'0 0.0
2017-Nov-02 05:28N 37°48' W 122°19'0 0.0
2017-Nov-02 04:58N 37°48' W 122°19'0 0.0
2017-Nov-02 04:28N 37°48' W 122°19'0 0.0
2017-Nov-02 03:58N 37°48' W 122°19'0 0.0
2017-Nov-02 03:28N 37°48' W 122°19'0 0.0
2017-Nov-02 02:58N 37°48' W 122°19'0 0.0
2017-Nov-02 02:28N 37°48' W 122°19'0 0.0
2017-Nov-02 01:59N 37°48' W 122°19'0 0.0
2017-Nov-02 01:28N 37°48' W 122°19'0 0.0
2017-Nov-02 00:58N 37°48' W 122°19'0 0.0
2017-Nov-02 00:28N 37°48' W 122°19'0 0.0
2017-Nov-01 23:58N 37°48' W 122°19'0 0.0
2017-Nov-01 23:28N 37°48' W 122°19'0 0.0
2017-Nov-01 22:59N 37°48' W 122°19'1 1.9
2017-Nov-01 22:30N 37°48' W 122°20'4 9.0
2017-Nov-01 22:00N 37°49' W 122°25'612.2
2017-Nov-01 21:31N 37°47' W 122°33'714.1
2017-Nov-01 21:01N 37°44' W 122°41'612.0
2017-Nov-01 20:30N 37°38' W 122°40'612.2
2017-Nov-01 20:01N 37°32' W 122°40'611.1
2017-Nov-01 19:31N 37°26' W 122°40'511.0
2017-Nov-01 19:01N 37°21' W 122°40'511.0
2017-Nov-01 18:31N 37°15' W 122°40'18711.3
2017-Nov-01 02:00N 34°29' W 120°54'510.2
2017-Nov-01 01:30N 34°26' W 120°49'611.5
2017-Nov-01 00:57N 34°24' W 120°42'611.9
2017-Nov-01 00:29N 34°23' W 120°35'611.9
2017-Oct-31 23:59N 34°21' W 120°28'611.6
2017-Oct-31 23:25N 34°19' W 120°21'511.4
2017-Oct-31 22:58N 34°18' W 120°15'511.3
2017-Oct-31 22:30N 34°16' W 120°08'611.2
2017-Oct-31 21:59N 34°15' W 120°02'510.9
2017-Oct-31 21:30N 34°13' W 119°56'611.0
2017-Oct-31 20:55N 34°12' W 119°48'511.0
2017-Oct-31 20:30N 34°11' W 119°43'510.5
2017-Oct-31 19:59N 34°09' W 119°36'511.0
2017-Oct-31 19:30N 34°08' W 119°30'510.9
2017-Oct-31 19:00N 34°06' W 119°24'611.3
2017-Oct-31 18:29N 34°05' W 119°17'711.1
2017-Oct-31 17:51N 34°01' W 119°09'411.1
2017-Oct-31 17:27N 33°59' W 119°05'511.2
2017-Oct-31 16:59N 33°57' W 118°59'611.2
2017-Oct-31 16:28N 33°54' W 118°53'511.2
2017-Oct-31 16:00N 33°51' W 118°48'611.2
2017-Oct-31 15:30N 33°48' W 118°42'611.1
2017-Oct-31 15:00N 33°46' W 118°36'511.2
2017-Oct-31 14:30N 33°43' W 118°30'611.2
2017-Oct-31 14:00N 33°40' W 118°25'510.4
2017-Oct-31 13:30N 33°38' W 118°19'7 0.2
2017-Oct-29 19:59N 33°45' W 118°16'0 0.0
2017-Oct-29 13:29N 33°45' W 118°17'0 0.0
2017-Oct-29 11:47N 33°45' W 118°17'0 0.0
2017-Oct-29 11:29N 33°45' W 118°17'0 0.0
2017-Oct-29 05:40N 33°45' W 118°16'0 0.1
2017-Oct-29 05:11N 33°45' W 118°17'0 0.0
2017-Oct-29 04:53N 33°45' W 118°17'0 0.1
2017-Oct-29 04:23N 33°45' W 118°16'0 0.1
2017-Oct-29 03:41N 33°45' W 118°17'17 1.9
2017-Oct-28 19:00N 33°44' W 118°36'611.9
2017-Oct-28 18:30N 33°47' W 118°43'612.3
2017-Oct-28 18:00N 33°50' W 118°49'612.0
2017-Oct-28 17:31N 33°52' W 118°55'612.0
2017-Oct-28 17:00N 33°55' W 119°02'816.7
2017-Oct-28 16:30N 33°60' W 119°10'917.5
2017-Oct-28 16:00N 34°03' W 119°20'917.9
2017-Oct-28 15:30N 34°06' W 119°30'917.7
2017-Oct-28 14:59N 34°08' W 119°41'918.2
2017-Oct-28 14:30N 34°10' W 119°51'917.7
2017-Oct-28 14:00N 34°13' W 120°02'917.6
2017-Oct-28 13:30N 34°15' W 120°12'917.7
2017-Oct-28 13:00N 34°17' W 120°22'917.2
2017-Oct-28 12:30N 34°20' W 120°32'816.6
2017-Oct-28 12:00N 34°22' W 120°42'916.9
2017-Oct-28 11:30N 34°24' W 120°52'917.4
2017-Oct-28 10:59N 34°26' W 121°03'817.4
2017-Oct-28 10:30N 34°28' W 121°12'917.8
2017-Oct-28 10:00N 34°29' W 121°23'917.6
2017-Oct-28 09:30N 34°31' W 121°34'917.9
2017-Oct-28 09:01N 34°33' W 121°44'917.9
2017-Oct-28 08:30N 34°34' W 121°55'917.8
2017-Oct-28 08:01N 34°36' W 122°05'917.9
2017-Oct-28 07:30N 34°38' W 122°16'917.6
2017-Oct-28 07:01N 34°40' W 122°26'917.9
2017-Oct-28 06:31N 34°42' W 122°37'918.2
2017-Oct-28 06:00N 34°44' W 122°48'918.4
2017-Oct-28 05:30N 34°45' W 122°59'917.9
2017-Oct-28 05:00N 34°47' W 123°10'917.8
2017-Oct-28 04:30N 34°49' W 123°20'917.6
2017-Oct-28 04:00N 34°50' W 123°31'917.6
2017-Oct-28 03:30N 34°52' W 123°41'917.6
2017-Oct-28 03:00N 34°54' W 123°52'917.4
2017-Oct-28 02:30N 34°56' W 124°02'917.9
2017-Oct-28 02:01N 34°57' W 124°13'917.6
2017-Oct-28 01:30N 34°59' W 124°24'917.7
2017-Oct-28 01:00N 35°01' W 124°34'918.0
2017-Oct-28 00:30N 35°03' W 124°45'917.8
2017-Oct-28 00:01N 35°04' W 124°55'917.9
2017-Oct-27 23:31N 35°06' W 125°06'917.9
2017-Oct-27 23:00N 35°08' W 125°17'918.2
2017-Oct-27 22:30N 35°10' W 125°28'918.1
2017-Oct-27 22:01N 35°12' W 125°39'917.8
2017-Oct-27 21:29N 35°15' W 125°49'918.3
2017-Oct-27 21:00N 35°19' W 125°58'918.3
2017-Oct-27 20:30N 35°25' W 126°08'918.4
2017-Oct-27 20:01N 35°30' W 126°17'1318.5
2017-Oct-27 19:17N 35°38' W 126°30'518.8
2017-Oct-27 19:00N 35°41' W 126°35'918.5
2017-Oct-27 18:31N 35°47' W 126°44'2518.1
2017-Oct-27 17:07N 36°01' W 127°10'218.2
2017-Oct-27 17:00N 36°02' W 127°12'1017.9
2017-Oct-27 16:25N 36°08' W 127°23'718.1
2017-Oct-27 16:00N 36°12' W 127°30'918.3
2017-Oct-27 15:30N 36°18' W 127°40'2717.9
2017-Oct-27 13:58N 36°33' W 128°08'817.9
2017-Oct-27 13:30N 36°38' W 128°16'917.9
2017-Oct-27 13:01N 36°43' W 128°25'917.9
2017-Oct-27 12:30N 36°49' W 128°34'5717.8
2017-Oct-27 09:19N 37°21' W 129°32'618.0
2017-Oct-27 09:00N 37°25' W 129°38'917.8
2017-Oct-27 08:30N 37°30' W 129°47'918.0
2017-Oct-27 08:00N 37°35' W 129°56'2017.7
2017-Oct-27 06:54N 37°46' W 130°17'717.7
2017-Oct-27 06:30N 37°49' W 130°24'1017.6
2017-Oct-27 05:55N 37°55' W 130°35'817.8
2017-Oct-27 05:29N 37°59' W 130°44'917.7
2017-Oct-27 05:00N 38°04' W 130°53'  

Dump ship's entire track history